sensor_id;sensor_type;location;lat;lon;timestamp;P1;durP1;ratioP1;P2;durP2;ratioP2
17482;SDS011;8858;52.308;20.994;2023-09-19T00:01:37;11.10;;;9.50;;
17482;SDS011;8858;52.308;20.994;2023-09-19T00:04:07;11.50;;;9.57;;
17482;SDS011;8858;52.308;20.994;2023-09-19T00:06:39;10.80;;;9.70;;
17482;SDS011;8858;52.308;20.994;2023-09-19T00:09:10;14.63;;;9.75;;
17482;SDS011;8858;52.308;20.994;2023-09-19T00:11:40;11.02;;;9.98;;
17482;SDS011;8858;52.308;20.994;2023-09-19T00:14:09;10.82;;;9.70;;
17482;SDS011;8858;52.308;20.994;2023-09-19T00:16:41;10.88;;;9.88;;
17482;SDS011;8858;52.308;20.994;2023-09-19T00:19:14;10.98;;;9.88;;
17482;SDS011;8858;52.308;20.994;2023-09-19T00:21:44;11.18;;;9.77;;
17482;SDS011;8858;52.308;20.994;2023-09-19T00:24:14;11.98;;;10.38;;
17482;SDS011;8858;52.308;20.994;2023-09-19T00:26:45;10.00;;;8.98;;
17482;SDS011;8858;52.308;20.994;2023-09-19T00:29:15;10.13;;;9.13;;
17482;SDS011;8858;52.308;20.994;2023-09-19T00:31:44;11.60;;;9.65;;
17482;SDS011;8858;52.308;20.994;2023-09-19T00:34:13;11.27;;;9.90;;
17482;SDS011;8858;52.308;20.994;2023-09-19T00:36:43;11.32;;;9.95;;
17482;SDS011;8858;52.308;20.994;2023-09-19T00:39:12;10.93;;;9.82;;
17482;SDS011;8858;52.308;20.994;2023-09-19T00:41:41;11.77;;;9.85;;
17482;SDS011;8858;52.308;20.994;2023-09-19T00:44:14;10.57;;;9.43;;
17482;SDS011;8858;52.308;20.994;2023-09-19T00:46:44;10.75;;;9.85;;
17482;SDS011;8858;52.308;20.994;2023-09-19T00:49:17;10.35;;;9.30;;
17482;SDS011;8858;52.308;20.994;2023-09-19T00:51:49;10.38;;;9.38;;
17482;SDS011;8858;52.308;20.994;2023-09-19T00:54:19;11.45;;;9.93;;
17482;SDS011;8858;52.308;20.994;2023-09-19T00:56:48;12.00;;;9.13;;
17482;SDS011;8858;52.308;20.994;2023-09-19T00:59:18;11.15;;;9.95;;
17482;SDS011;8858;52.308;20.994;2023-09-19T01:01:50;10.65;;;9.60;;
17482;SDS011;8858;52.308;20.994;2023-09-19T01:04:21;15.30;;;10.32;;
17482;SDS011;8858;52.308;20.994;2023-09-19T01:06:50;10.85;;;9.75;;
17482;SDS011;8858;52.308;20.994;2023-09-19T01:09:21;10.68;;;9.57;;
17482;SDS011;8858;52.308;20.994;2023-09-19T01:11:50;12.85;;;9.63;;
17482;SDS011;8858;52.308;20.994;2023-09-19T01:14:29;10.70;;;9.40;;
17482;SDS011;8858;52.308;20.994;2023-09-19T01:17:09;10.88;;;9.77;;
17482;SDS011;8858;52.308;20.994;2023-09-19T01:23:04;11.57;;;10.30;;
17482;SDS011;8858;52.308;20.994;2023-09-19T01:28:53;10.80;;;9.70;;
17482;SDS011;8858;52.308;20.994;2023-09-19T01:31:31;12.93;;;10.57;;
17482;SDS011;8858;52.308;20.994;2023-09-19T01:34:03;12.25;;;9.60;;
17482;SDS011;8858;52.308;20.994;2023-09-19T01:36:33;13.88;;;9.93;;
17482;SDS011;8858;52.308;20.994;2023-09-19T01:39:04;13.02;;;10.15;;
17482;SDS011;8858;52.308;20.994;2023-09-19T01:41:41;12.95;;;9.40;;
17482;SDS011;8858;52.308;20.994;2023-09-19T01:44:22;13.50;;;9.88;;
17482;SDS011;8858;52.308;20.994;2023-09-19T01:46:58;12.70;;;10.30;;
17482;SDS011;8858;52.308;20.994;2023-09-19T01:49:33;14.05;;;10.10;;
17482;SDS011;8858;52.308;20.994;2023-09-19T01:52:09;13.02;;;9.75;;
17482;SDS011;8858;52.308;20.994;2023-09-19T01:54:46;11.13;;;9.68;;
17482;SDS011;8858;52.308;20.994;2023-09-19T01:57:20;10.73;;;9.57;;
17482;SDS011;8858;52.308;20.994;2023-09-19T01:59:59;11.52;;;10.13;;
17482;SDS011;8858;52.308;20.994;2023-09-19T02:02:42;10.82;;;9.82;;
17482;SDS011;8858;52.308;20.994;2023-09-19T02:05:13;11.13;;;10.02;;
17482;SDS011;8858;52.308;20.994;2023-09-19T02:07:50;11.23;;;10.13;;
17482;SDS011;8858;52.308;20.994;2023-09-19T02:10:19;17.15;;;10.00;;
17482;SDS011;8858;52.308;20.994;2023-09-19T02:12:49;11.85;;;10.00;;
17482;SDS011;8858;52.308;20.994;2023-09-19T02:15:18;11.40;;;10.27;;
17482;SDS011;8858;52.308;20.994;2023-09-19T02:17:48;11.00;;;10.00;;
17482;SDS011;8858;52.308;20.994;2023-09-19T02:20:17;13.30;;;10.48;;
17482;SDS011;8858;52.308;20.994;2023-09-19T02:22:49;10.88;;;9.88;;
17482;SDS011;8858;52.308;20.994;2023-09-19T02:25:21;12.30;;;10.35;;
17482;SDS011;8858;52.308;20.994;2023-09-19T02:27:50;12.27;;;10.02;;
17482;SDS011;8858;52.308;20.994;2023-09-19T02:30:24;11.48;;;10.18;;
17482;SDS011;8858;52.308;20.994;2023-09-19T02:32:56;11.20;;;9.93;;
17482;SDS011;8858;52.308;20.994;2023-09-19T02:35:25;10.13;;;9.18;;
17482;SDS011;8858;52.308;20.994;2023-09-19T02:37:55;12.00;;;9.98;;
17482;SDS011;8858;52.308;20.994;2023-09-19T02:40:24;10.38;;;9.25;;
17482;SDS011;8858;52.308;20.994;2023-09-19T02:42:59;16.45;;;10.10;;
17482;SDS011;8858;52.308;20.994;2023-09-19T02:45:29;14.75;;;10.30;;
17482;SDS011;8858;52.308;20.994;2023-09-19T02:47:59;11.30;;;9.93;;
17482;SDS011;8858;52.308;20.994;2023-09-19T02:50:29;19.58;;;11.20;;
17482;SDS011;8858;52.308;20.994;2023-09-19T02:52:58;15.95;;;10.07;;
17482;SDS011;8858;52.308;20.994;2023-09-19T02:55:27;14.35;;;9.98;;
17482;SDS011;8858;52.308;20.994;2023-09-19T02:57:55;11.45;;;10.35;;
17482;SDS011;8858;52.308;20.994;2023-09-19T03:00:27;11.95;;;9.65;;
17482;SDS011;8858;52.308;20.994;2023-09-19T03:02:58;12.25;;;9.65;;
17482;SDS011;8858;52.308;20.994;2023-09-19T03:05:27;11.10;;;10.00;;
17482;SDS011;8858;52.308;20.994;2023-09-19T03:07:58;11.00;;;9.90;;
17482;SDS011;8858;52.308;20.994;2023-09-19T03:10:28;11.63;;;10.52;;
17482;SDS011;8858;52.308;20.994;2023-09-19T03:13:01;10.95;;;9.88;;
17482;SDS011;8858;52.308;20.994;2023-09-19T03:15:31;12.32;;;10.02;;
17482;SDS011;8858;52.308;20.994;2023-09-19T03:18:00;10.85;;;9.88;;
17482;SDS011;8858;52.308;20.994;2023-09-19T03:20:29;12.32;;;9.75;;
17482;SDS011;8858;52.308;20.994;2023-09-19T03:22:57;12.57;;;10.30;;
17482;SDS011;8858;52.308;20.994;2023-09-19T03:25:31;11.82;;;9.95;;
17482;SDS011;8858;52.308;20.994;2023-09-19T03:28:02;12.02;;;9.95;;
17482;SDS011;8858;52.308;20.994;2023-09-19T03:30:32;12.10;;;10.93;;
17482;SDS011;8858;52.308;20.994;2023-09-19T03:33:04;13.15;;;10.60;;
17482;SDS011;8858;52.308;20.994;2023-09-19T03:35:34;11.88;;;10.05;;
17482;SDS011;8858;52.308;20.994;2023-09-19T03:38:06;12.45;;;9.68;;
17482;SDS011;8858;52.308;20.994;2023-09-19T03:40:35;11.98;;;10.23;;
17482;SDS011;8858;52.308;20.994;2023-09-19T03:43:06;10.98;;;9.68;;
17482;SDS011;8858;52.308;20.994;2023-09-19T03:45:34;12.25;;;9.73;;
17482;SDS011;8858;52.308;20.994;2023-09-19T03:48:09;13.60;;;9.70;;
17482;SDS011;8858;52.308;20.994;2023-09-19T03:50:41;12.63;;;10.43;;
17482;SDS011;8858;52.308;20.994;2023-09-19T03:53:14;12.07;;;10.77;;
17482;SDS011;8858;52.308;20.994;2023-09-19T03:55:44;15.75;;;10.60;;
17482;SDS011;8858;52.308;20.994;2023-09-19T03:58:15;12.95;;;10.40;;
17482;SDS011;8858;52.308;20.994;2023-09-19T04:00:43;14.32;;;10.82;;
17482;SDS011;8858;52.308;20.994;2023-09-19T04:03:13;15.85;;;10.65;;
17482;SDS011;8858;52.308;20.994;2023-09-19T04:05:49;12.10;;;10.68;;
17482;SDS011;8858;52.308;20.994;2023-09-19T04:08:19;12.07;;;10.88;;
17482;SDS011;8858;52.308;20.994;2023-09-19T04:10:47;11.57;;;10.38;;
17482;SDS011;8858;52.308;20.994;2023-09-19T04:13:16;16.42;;;10.15;;
17482;SDS011;8858;52.308;20.994;2023-09-19T04:15:45;12.15;;;10.23;;
17482;SDS011;8858;52.308;20.994;2023-09-19T04:18:15;12.98;;;10.48;;
17482;SDS011;8858;52.308;20.994;2023-09-19T04:20:47;13.68;;;10.15;;
17482;SDS011;8858;52.308;20.994;2023-09-19T04:23:19;22.73;;;13.55;;
17482;SDS011;8858;52.308;20.994;2023-09-19T04:25:48;11.60;;;10.48;;
17482;SDS011;8858;52.308;20.994;2023-09-19T04:28:17;15.00;;;10.95;;
17482;SDS011;8858;52.308;20.994;2023-09-19T04:30:46;17.70;;;10.48;;
17482;SDS011;8858;52.308;20.994;2023-09-19T04:33:16;11.77;;;10.55;;
17482;SDS011;8858;52.308;20.994;2023-09-19T04:35:48;14.25;;;10.52;;
17482;SDS011;8858;52.308;20.994;2023-09-19T04:38:17;13.95;;;9.95;;
17482;SDS011;8858;52.308;20.994;2023-09-19T04:40:45;13.20;;;10.38;;
17482;SDS011;8858;52.308;20.994;2023-09-19T04:43:15;13.68;;;10.38;;
17482;SDS011;8858;52.308;20.994;2023-09-19T04:45:43;15.85;;;9.82;;
17482;SDS011;8858;52.308;20.994;2023-09-19T04:48:15;15.82;;;10.75;;
17482;SDS011;8858;52.308;20.994;2023-09-19T04:50:44;16.15;;;10.48;;
17482;SDS011;8858;52.308;20.994;2023-09-19T04:53:16;14.10;;;10.23;;
17482;SDS011;8858;52.308;20.994;2023-09-19T04:55:49;14.00;;;10.63;;
17482;SDS011;8858;52.308;20.994;2023-09-19T04:58:18;12.63;;;10.88;;
17482;SDS011;8858;52.308;20.994;2023-09-19T05:00:50;12.38;;;11.07;;
17482;SDS011;8858;52.308;20.994;2023-09-19T05:03:21;13.95;;;9.95;;
17482;SDS011;8858;52.308;20.994;2023-09-19T05:05:51;10.68;;;9.52;;
17482;SDS011;8858;52.308;20.994;2023-09-19T05:08:19;12.02;;;9.68;;
17482;SDS011;8858;52.308;20.994;2023-09-19T05:10:52;12.80;;;10.02;;
17482;SDS011;8858;52.308;20.994;2023-09-19T05:13:22;12.90;;;10.45;;
17482;SDS011;8858;52.308;20.994;2023-09-19T05:15:50;11.82;;;10.20;;
17482;SDS011;8858;52.308;20.994;2023-09-19T05:18:21;10.88;;;9.60;;
17482;SDS011;8858;52.308;20.994;2023-09-19T05:20:50;11.13;;;9.93;;
17482;SDS011;8858;52.308;20.994;2023-09-19T05:23:19;12.65;;;10.15;;
17482;SDS011;8858;52.308;20.994;2023-09-19T05:25:48;10.52;;;9.43;;
17482;SDS011;8858;52.308;20.994;2023-09-19T05:28:17;11.80;;;9.63;;
17482;SDS011;8858;52.308;20.994;2023-09-19T05:30:47;11.38;;;10.18;;
17482;SDS011;8858;52.308;20.994;2023-09-19T05:33:16;14.00;;;10.23;;
17482;SDS011;8858;52.308;20.994;2023-09-19T05:35:46;12.60;;;9.55;;
17482;SDS011;8858;52.308;20.994;2023-09-19T05:38:17;11.60;;;9.70;;
17482;SDS011;8858;52.308;20.994;2023-09-19T05:40:47;12.18;;;10.07;;
17482;SDS011;8858;52.308;20.994;2023-09-19T05:43:15;12.07;;;9.82;;
17482;SDS011;8858;52.308;20.994;2023-09-19T05:45:45;10.82;;;9.82;;
17482;SDS011;8858;52.308;20.994;2023-09-19T05:48:18;11.75;;;10.18;;
17482;SDS011;8858;52.308;20.994;2023-09-19T05:50:49;10.70;;;9.60;;
17482;SDS011;8858;52.308;20.994;2023-09-19T05:53:17;12.18;;;9.77;;
17482;SDS011;8858;52.308;20.994;2023-09-19T05:55:45;13.13;;;10.32;;
17482;SDS011;8858;52.308;20.994;2023-09-19T05:58:14;12.30;;;9.80;;
17482;SDS011;8858;52.308;20.994;2023-09-19T06:00:44;11.70;;;9.73;;
17482;SDS011;8858;52.308;20.994;2023-09-19T06:03:15;11.55;;;9.30;;
17482;SDS011;8858;52.308;20.994;2023-09-19T06:05:44;15.93;;;10.07;;
17482;SDS011;8858;52.308;20.994;2023-09-19T06:08:18;12.70;;;9.98;;
17482;SDS011;8858;52.308;20.994;2023-09-19T06:10:47;12.13;;;9.88;;
17482;SDS011;8858;52.308;20.994;2023-09-19T06:13:18;18.33;;;10.82;;
17482;SDS011;8858;52.308;20.994;2023-09-19T06:15:47;14.23;;;9.88;;
17482;SDS011;8858;52.308;20.994;2023-09-19T06:18:16;12.65;;;10.02;;
17482;SDS011;8858;52.308;20.994;2023-09-19T06:20:46;11.60;;;9.95;;
17482;SDS011;8858;52.308;20.994;2023-09-19T06:23:18;10.90;;;9.10;;
17482;SDS011;8858;52.308;20.994;2023-09-19T06:25:49;14.95;;;9.93;;
17482;SDS011;8858;52.308;20.994;2023-09-19T06:28:18;10.50;;;9.38;;
17482;SDS011;8858;52.308;20.994;2023-09-19T06:30:50;13.20;;;9.93;;
17482;SDS011;8858;52.308;20.994;2023-09-19T06:33:19;14.70;;;10.10;;
17482;SDS011;8858;52.308;20.994;2023-09-19T06:35:49;11.13;;;9.73;;
17482;SDS011;8858;52.308;20.994;2023-09-19T06:38:24;15.60;;;9.95;;
17482;SDS011;8858;52.308;20.994;2023-09-19T06:40:52;12.57;;;9.05;;
17482;SDS011;8858;52.308;20.994;2023-09-19T06:43:22;11.82;;;9.63;;
17482;SDS011;8858;52.308;20.994;2023-09-19T06:45:50;11.30;;;8.70;;
17482;SDS011;8858;52.308;20.994;2023-09-19T06:48:21;11.30;;;10.20;;
17482;SDS011;8858;52.308;20.994;2023-09-19T06:50:52;10.13;;;9.02;;
17482;SDS011;8858;52.308;20.994;2023-09-19T06:53:23;12.52;;;9.00;;
17482;SDS011;8858;52.308;20.994;2023-09-19T06:55:52;12.77;;;10.23;;
17482;SDS011;8858;52.308;20.994;2023-09-19T06:58:21;13.40;;;9.57;;
17482;SDS011;8858;52.308;20.994;2023-09-19T07:00:49;11.13;;;9.20;;
17482;SDS011;8858;52.308;20.994;2023-09-19T07:03:19;14.90;;;10.07;;
17482;SDS011;8858;52.308;20.994;2023-09-19T07:05:50;15.00;;;9.60;;
17482;SDS011;8858;52.308;20.994;2023-09-19T07:08:20;10.43;;;9.38;;
17482;SDS011;8858;52.308;20.994;2023-09-19T07:10:50;9.70;;;8.73;;
17482;SDS011;8858;52.308;20.994;2023-09-19T07:13:19;12.60;;;9.02;;
17482;SDS011;8858;52.308;20.994;2023-09-19T07:15:47;10.90;;;9.95;;
17482;SDS011;8858;52.308;20.994;2023-09-19T07:18:18;11.75;;;10.63;;
17482;SDS011;8858;52.308;20.994;2023-09-19T07:20:48;14.90;;;10.32;;
17482;SDS011;8858;52.308;20.994;2023-09-19T07:23:17;14.43;;;10.57;;
17482;SDS011;8858;52.308;20.994;2023-09-19T07:25:47;12.10;;;10.45;;
17482;SDS011;8858;52.308;20.994;2023-09-19T07:28:18;15.77;;;10.75;;
17482;SDS011;8858;52.308;20.994;2023-09-19T07:30:47;12.23;;;10.95;;
17482;SDS011;8858;52.308;20.994;2023-09-19T07:33:16;12.70;;;11.40;;
17482;SDS011;8858;52.308;20.994;2023-09-19T07:35:45;13.93;;;11.35;;
17482;SDS011;8858;52.308;20.994;2023-09-19T07:38:18;15.43;;;11.68;;
17482;SDS011;8858;52.308;20.994;2023-09-19T07:40:47;15.88;;;12.23;;
17482;SDS011;8858;52.308;20.994;2023-09-19T07:43:18;16.83;;;11.93;;
17482;SDS011;8858;52.308;20.994;2023-09-19T07:45:49;16.23;;;11.95;;
17482;SDS011;8858;52.308;20.994;2023-09-19T07:48:17;12.70;;;11.10;;
17482;SDS011;8858;52.308;20.994;2023-09-19T07:50:46;14.98;;;10.80;;
17482;SDS011;8858;52.308;20.994;2023-09-19T07:53:14;13.82;;;11.88;;
17482;SDS011;8858;52.308;20.994;2023-09-19T07:55:45;13.98;;;10.68;;
17482;SDS011;8858;52.308;20.994;2023-09-19T07:58:20;15.18;;;11.45;;
17482;SDS011;8858;52.308;20.994;2023-09-19T08:00:50;12.48;;;11.25;;
17482;SDS011;8858;52.308;20.994;2023-09-19T08:03:19;13.30;;;12.07;;
17482;SDS011;8858;52.308;20.994;2023-09-19T08:05:48;13.80;;;12.07;;
17482;SDS011;8858;52.308;20.994;2023-09-19T08:08:16;13.07;;;11.35;;
17482;SDS011;8858;52.308;20.994;2023-09-19T08:10:52;17.77;;;12.27;;
17482;SDS011;8858;52.308;20.994;2023-09-19T08:13:23;12.35;;;11.25;;
17482;SDS011;8858;52.308;20.994;2023-09-19T08:15:54;12.73;;;11.50;;
17482;SDS011;8858;52.308;20.994;2023-09-19T08:18:23;12.52;;;11.45;;
17482;SDS011;8858;52.308;20.994;2023-09-19T08:20:54;13.52;;;11.93;;
17482;SDS011;8858;52.308;20.994;2023-09-19T08:23:25;14.82;;;12.48;;
17482;SDS011;8858;52.308;20.994;2023-09-19T08:25:55;13.15;;;12.02;;
17482;SDS011;8858;52.308;20.994;2023-09-19T08:28:26;13.70;;;12.38;;
17482;SDS011;8858;52.308;20.994;2023-09-19T08:30:56;12.80;;;11.57;;
17482;SDS011;8858;52.308;20.994;2023-09-19T08:33:31;13.70;;;12.40;;
17482;SDS011;8858;52.308;20.994;2023-09-19T08:36:01;15.80;;;12.52;;
17482;SDS011;8858;52.308;20.994;2023-09-19T08:38:31;14.10;;;11.48;;
17482;SDS011;8858;52.308;20.994;2023-09-19T08:41:04;13.20;;;11.80;;
17482;SDS011;8858;52.308;20.994;2023-09-19T08:43:35;11.50;;;9.90;;
17482;SDS011;8858;52.308;20.994;2023-09-19T08:46:07;10.63;;;9.63;;
17482;SDS011;8858;52.308;20.994;2023-09-19T08:48:39;10.57;;;9.50;;
17482;SDS011;8858;52.308;20.994;2023-09-19T08:51:18;10.73;;;9.63;;
17482;SDS011;8858;52.308;20.994;2023-09-19T08:53:50;10.82;;;9.77;;
17482;SDS011;8858;52.308;20.994;2023-09-19T08:56:22;10.82;;;9.57;;
17482;SDS011;8858;52.308;20.994;2023-09-19T08:58:55;11.73;;;9.75;;
17482;SDS011;8858;52.308;20.994;2023-09-19T09:01:27;12.25;;;9.45;;
17482;SDS011;8858;52.308;20.994;2023-09-19T09:03:58;11.45;;;10.25;;
17482;SDS011;8858;52.308;20.994;2023-09-19T09:06:26;12.10;;;10.88;;
17482;SDS011;8858;52.308;20.994;2023-09-19T09:08:55;12.45;;;10.85;;
17482;SDS011;8858;52.308;20.994;2023-09-19T09:11:24;11.32;;;10.35;;
17482;SDS011;8858;52.308;20.994;2023-09-19T09:13:56;11.88;;;10.77;;
17482;SDS011;8858;52.308;20.994;2023-09-19T09:16:24;12.85;;;10.35;;
17482;SDS011;8858;52.308;20.994;2023-09-19T09:18:53;11.90;;;10.68;;
17482;SDS011;8858;52.308;20.994;2023-09-19T09:21:24;12.55;;;10.60;;
17482;SDS011;8858;52.308;20.994;2023-09-19T09:23:53;12.85;;;11.20;;
17482;SDS011;8858;52.308;20.994;2023-09-19T09:29:11;15.73;;;10.95;;
17482;SDS011;8858;52.308;20.994;2023-09-19T09:31:45;12.23;;;10.93;;
17482;SDS011;8858;52.308;20.994;2023-09-19T09:34:15;18.27;;;12.05;;
17482;SDS011;8858;52.308;20.994;2023-09-19T09:36:44;11.98;;;10.70;;
17482;SDS011;8858;52.308;20.994;2023-09-19T09:39:30;18.20;;;12.57;;
17482;SDS011;8858;52.308;20.994;2023-09-19T09:42:01;13.05;;;11.65;;
17482;SDS011;8858;52.308;20.994;2023-09-19T09:44:35;14.65;;;11.18;;
17482;SDS011;8858;52.308;20.994;2023-09-19T09:47:03;15.07;;;10.75;;
17482;SDS011;8858;52.308;20.994;2023-09-19T09:49:49;16.48;;;11.77;;
17482;SDS011;8858;52.308;20.994;2023-09-19T09:52:44;15.75;;;12.60;;
17482;SDS011;8858;52.308;20.994;2023-09-19T09:55:13;12.52;;;11.23;;
17482;SDS011;8858;52.308;20.994;2023-09-19T09:57:41;12.27;;;9.95;;
17482;SDS011;8858;52.308;20.994;2023-09-19T10:00:12;13.00;;;10.95;;
17482;SDS011;8858;52.308;20.994;2023-09-19T10:02:50;11.68;;;10.05;;
17482;SDS011;8858;52.308;20.994;2023-09-19T10:05:19;13.30;;;10.68;;
17482;SDS011;8858;52.308;20.994;2023-09-19T10:08:10;11.00;;;9.82;;
17482;SDS011;8858;52.308;20.994;2023-09-19T10:10:42;13.07;;;10.00;;
17482;SDS011;8858;52.308;20.994;2023-09-19T10:13:21;13.20;;;10.77;;
17482;SDS011;8858;52.308;20.994;2023-09-19T10:15:57;10.98;;;9.88;;
17482;SDS011;8858;52.308;20.994;2023-09-19T10:18:32;12.02;;;9.75;;
17482;SDS011;8858;52.308;20.994;2023-09-19T10:21:06;10.88;;;9.80;;
17482;SDS011;8858;52.308;20.994;2023-09-19T10:23:37;11.50;;;10.35;;
17482;SDS011;8858;52.308;20.994;2023-09-19T10:26:10;10.93;;;9.82;;
17482;SDS011;8858;52.308;20.994;2023-09-19T10:28:40;10.50;;;9.50;;
17482;SDS011;8858;52.308;20.994;2023-09-19T10:31:14;11.05;;;9.93;;
17482;SDS011;8858;52.308;20.994;2023-09-19T10:33:49;11.05;;;9.95;;
17482;SDS011;8858;52.308;20.994;2023-09-19T10:36:17;10.13;;;9.13;;
17482;SDS011;8858;52.308;20.994;2023-09-19T10:38:46;14.50;;;12.95;;
17482;SDS011;8858;52.308;20.994;2023-09-19T10:41:17;13.30;;;10.48;;
17482;SDS011;8858;52.308;20.994;2023-09-19T10:43:49;10.35;;;9.10;;
17482;SDS011;8858;52.308;20.994;2023-09-19T10:46:23;10.40;;;9.43;;
17482;SDS011;8858;52.308;20.994;2023-09-19T10:48:52;9.52;;;8.48;;
17482;SDS011;8858;52.308;20.994;2023-09-19T10:51:22;9.18;;;8.27;;
17482;SDS011;8858;52.308;20.994;2023-09-19T10:53:55;7.15;;;6.45;;
17482;SDS011;8858;52.308;20.994;2023-09-19T10:56:34;7.93;;;7.05;;
17482;SDS011;8858;52.308;20.994;2023-09-19T10:59:07;9.27;;;7.00;;
17482;SDS011;8858;52.308;20.994;2023-09-19T11:01:43;8.55;;;7.40;;
17482;SDS011;8858;52.308;20.994;2023-09-19T11:04:21;9.05;;;7.63;;
17482;SDS011;8858;52.308;20.994;2023-09-19T11:07:01;7.53;;;6.82;;
17482;SDS011;8858;52.308;20.994;2023-09-19T11:09:43;10.75;;;6.55;;
17482;SDS011;8858;52.308;20.994;2023-09-19T11:24:29;5.43;;;5.03;;
17482;SDS011;8858;52.308;20.994;2023-09-19T11:27:09;7.53;;;5.07;;
17482;SDS011;8858;52.308;20.994;2023-09-19T11:29:40;5.72;;;5.22;;
17482;SDS011;8858;52.308;20.994;2023-09-19T11:32:09;5.25;;;4.80;;
17482;SDS011;8858;52.308;20.994;2023-09-19T11:34:39;5.25;;;4.38;;
17482;SDS011;8858;52.308;20.994;2023-09-19T11:40:56;5.47;;;4.97;;
17482;SDS011;8858;52.308;20.994;2023-09-19T11:47:01;5.72;;;5.30;;
17482;SDS011;8858;52.308;20.994;2023-09-19T11:49:31;6.95;;;4.82;;
17482;SDS011;8858;52.308;20.994;2023-09-19T11:52:02;6.15;;;5.65;;
17482;SDS011;8858;52.308;20.994;2023-09-19T11:54:34;6.18;;;5.50;;
17482;SDS011;8858;52.308;20.994;2023-09-19T11:57:06;6.68;;;5.68;;
17482;SDS011;8858;52.308;20.994;2023-09-19T11:59:42;5.85;;;5.28;;
17482;SDS011;8858;52.308;20.994;2023-09-19T12:02:12;6.20;;;5.60;;
17482;SDS011;8858;52.308;20.994;2023-09-19T12:04:55;6.63;;;5.68;;
17482;SDS011;8858;52.308;20.994;2023-09-19T12:07:25;7.47;;;6.22;;
17482;SDS011;8858;52.308;20.994;2023-09-19T12:10:02;7.97;;;6.28;;
17482;SDS011;8858;52.308;20.994;2023-09-19T12:12:31;7.38;;;5.93;;
17482;SDS011;8858;52.308;20.994;2023-09-19T12:15:00;5.80;;;5.30;;
17482;SDS011;8858;52.308;20.994;2023-09-19T12:17:35;6.32;;;5.72;;
17482;SDS011;8858;52.308;20.994;2023-09-19T12:20:04;7.22;;;6.10;;
17482;SDS011;8858;52.308;20.994;2023-09-19T12:22:41;7.53;;;6.80;;
17482;SDS011;8858;52.308;20.994;2023-09-19T12:25:12;9.48;;;7.05;;
17482;SDS011;8858;52.308;20.994;2023-09-19T12:27:43;8.65;;;6.88;;
17482;SDS011;8858;52.308;20.994;2023-09-19T12:30:16;7.82;;;6.97;;
17482;SDS011;8858;52.308;20.994;2023-09-19T12:32:53;8.18;;;7.35;;
17482;SDS011;8858;52.308;20.994;2023-09-19T12:35:27;7.55;;;6.85;;
17482;SDS011;8858;52.308;20.994;2023-09-19T12:37:59;8.90;;;6.85;;
17482;SDS011;8858;52.308;20.994;2023-09-19T12:40:30;8.35;;;7.47;;
17482;SDS011;8858;52.308;20.994;2023-09-19T12:43:01;10.85;;;7.55;;
17482;SDS011;8858;52.308;20.994;2023-09-19T12:45:31;7.88;;;7.10;;
17482;SDS011;8858;52.308;20.994;2023-09-19T12:48:18;10.45;;;7.22;;
17482;SDS011;8858;52.308;20.994;2023-09-19T12:51:01;9.65;;;7.65;;
17482;SDS011;8858;52.308;20.994;2023-09-19T12:53:35;10.07;;;8.25;;
17482;SDS011;8858;52.308;20.994;2023-09-19T12:56:11;10.95;;;7.53;;
17482;SDS011;8858;52.308;20.994;2023-09-19T12:58:51;8.45;;;7.65;;
17482;SDS011;8858;52.308;20.994;2023-09-19T13:01:22;8.07;;;7.00;;
17482;SDS011;8858;52.308;20.994;2023-09-19T13:04:11;8.07;;;7.30;;
17482;SDS011;8858;52.308;20.994;2023-09-19T13:06:48;7.85;;;7.13;;
17482;SDS011;8858;52.308;20.994;2023-09-19T13:09:19;7.35;;;6.65;;
17482;SDS011;8858;52.308;20.994;2023-09-19T13:11:49;7.97;;;7.13;;
17482;SDS011;8858;52.308;20.994;2023-09-19T13:14:18;7.97;;;7.18;;
17482;SDS011;8858;52.308;20.994;2023-09-19T13:16:55;8.88;;;6.88;;
17482;SDS011;8858;52.308;20.994;2023-09-19T13:19:35;9.25;;;6.60;;
17482;SDS011;8858;52.308;20.994;2023-09-19T13:25:07;6.68;;;6.07;;
17482;SDS011;8858;52.308;20.994;2023-09-19T13:27:44;8.32;;;7.28;;
17482;SDS011;8858;52.308;20.994;2023-09-19T13:30:15;8.68;;;6.65;;
17482;SDS011;8858;52.308;20.994;2023-09-19T13:32:44;7.93;;;6.75;;
17482;SDS011;8858;52.308;20.994;2023-09-19T13:35:14;8.65;;;7.45;;
17482;SDS011;8858;52.308;20.994;2023-09-19T13:37:43;8.15;;;7.32;;
17482;SDS011;8858;52.308;20.994;2023-09-19T13:40:17;8.65;;;7.18;;
17482;SDS011;8858;52.308;20.994;2023-09-19T13:42:45;9.25;;;7.45;;
17482;SDS011;8858;52.308;20.994;2023-09-19T13:45:13;9.15;;;7.32;;
17482;SDS011;8858;52.308;20.994;2023-09-19T13:47:44;7.97;;;7.03;;
17482;SDS011;8858;52.308;20.994;2023-09-19T13:50:13;9.85;;;7.95;;
17482;SDS011;8858;52.308;20.994;2023-09-19T13:52:42;8.80;;;6.85;;
17482;SDS011;8858;52.308;20.994;2023-09-19T13:55:10;8.43;;;7.55;;
17482;SDS011;8858;52.308;20.994;2023-09-19T13:57:49;12.23;;;7.65;;
17482;SDS011;8858;52.308;20.994;2023-09-19T14:00:21;8.38;;;7.63;;
17482;SDS011;8858;52.308;20.994;2023-09-19T14:02:51;9.68;;;8.10;;
17482;SDS011;8858;52.308;20.994;2023-09-19T14:05:21;8.55;;;7.55;;
17482;SDS011;8858;52.308;20.994;2023-09-19T14:07:49;8.88;;;6.80;;
17482;SDS011;8858;52.308;20.994;2023-09-19T14:10:18;10.75;;;7.70;;
17482;SDS011;8858;52.308;20.994;2023-09-19T14:12:47;10.98;;;7.70;;
17482;SDS011;8858;52.308;20.994;2023-09-19T14:15:17;8.90;;;8.00;;
17482;SDS011;8858;52.308;20.994;2023-09-19T14:17:45;10.07;;;6.70;;
17482;SDS011;8858;52.308;20.994;2023-09-19T14:20:14;9.00;;;7.53;;
17482;SDS011;8858;52.308;20.994;2023-09-19T14:22:45;7.93;;;7.05;;
17482;SDS011;8858;52.308;20.994;2023-09-19T14:25:14;8.32;;;6.80;;
17482;SDS011;8858;52.308;20.994;2023-09-19T14:27:43;8.65;;;6.70;;
17482;SDS011;8858;52.308;20.994;2023-09-19T14:30:12;9.68;;;6.50;;
17482;SDS011;8858;52.308;20.994;2023-09-19T14:32:45;12.65;;;11.52;;
17482;SDS011;8858;52.308;20.994;2023-09-19T14:35:13;7.95;;;6.45;;
17482;SDS011;8858;52.308;20.994;2023-09-19T14:37:43;8.00;;;6.20;;
17482;SDS011;8858;52.308;20.994;2023-09-19T14:40:13;7.15;;;6.47;;
17482;SDS011;8858;52.308;20.994;2023-09-19T14:42:43;9.18;;;6.97;;
17482;SDS011;8858;52.308;20.994;2023-09-19T14:45:14;9.02;;;6.38;;
17482;SDS011;8858;52.308;20.994;2023-09-19T14:47:46;6.68;;;5.95;;
17482;SDS011;8858;52.308;20.994;2023-09-19T14:50:15;6.97;;;6.38;;
17482;SDS011;8858;52.308;20.994;2023-09-19T14:52:43;7.75;;;5.88;;
17482;SDS011;8858;52.308;20.994;2023-09-19T14:55:11;6.65;;;5.57;;
17482;SDS011;8858;52.308;20.994;2023-09-19T14:57:41;6.65;;;6.05;;
17482;SDS011;8858;52.308;20.994;2023-09-19T15:00:12;9.75;;;5.80;;
17482;SDS011;8858;52.308;20.994;2023-09-19T15:02:43;6.53;;;5.55;;
17482;SDS011;8858;52.308;20.994;2023-09-19T15:05:14;7.18;;;6.28;;
17482;SDS011;8858;52.308;20.994;2023-09-19T15:07:45;6.40;;;5.80;;
17482;SDS011;8858;52.308;20.994;2023-09-19T15:10:14;8.02;;;6.30;;
17482;SDS011;8858;52.308;20.994;2023-09-19T15:12:43;5.97;;;5.03;;
17482;SDS011;8858;52.308;20.994;2023-09-19T15:15:11;7.05;;;5.25;;
17482;SDS011;8858;52.308;20.994;2023-09-19T15:17:39;5.97;;;5.38;;
17482;SDS011;8858;52.308;20.994;2023-09-19T15:20:08;6.85;;;5.40;;
17482;SDS011;8858;52.308;20.994;2023-09-19T15:22:43;5.25;;;4.75;;
17482;SDS011;8858;52.308;20.994;2023-09-19T15:25:13;5.28;;;4.72;;
17482;SDS011;8858;52.308;20.994;2023-09-19T15:27:42;5.85;;;5.22;;
17482;SDS011;8858;52.308;20.994;2023-09-19T15:30:12;5.60;;;4.82;;